sensor_id;sensor_type;location;lat;lon;timestamp;temperature;humidity
17333;DHT22;8784;50.94667800;7.08448400;2024-03-17T00:04:35;8.80;99.90
17333;DHT22;8784;50.94667800;7.08448400;2024-03-17T00:07:02;8.70;99.90
17333;DHT22;8784;50.94667800;7.08448400;2024-03-17T00:09:28;8.70;99.90
17333;DHT22;8784;50.94667800;7.08448400;2024-03-17T00:11:56;8.70;99.90
17333;DHT22;8784;50.94667800;7.08448400;2024-03-17T00:14:21;8.80;99.90
17333;DHT22;8784;50.94667800;7.08448400;2024-03-17T00:16:49;8.80;99.90
17333;DHT22;8784;50.94667800;7.08448400;2024-03-17T00:19:15;8.80;99.90
17333;DHT22;8784;50.94667800;7.08448400;2024-03-17T00:21:44;8.80;99.90
17333;DHT22;8784;50.94667800;7.08448400;2024-03-17T00:24:10;8.70;99.90
17333;DHT22;8784;50.94667800;7.08448400;2024-03-17T00:26:39;8.50;99.90
17333;DHT22;8784;50.94667800;7.08448400;2024-03-17T00:29:05;8.40;99.90
17333;DHT22;8784;50.94667800;7.08448400;2024-03-17T00:31:32;8.20;99.90
17333;DHT22;8784;50.94667800;7.08448400;2024-03-17T00:33:58;8.10;99.90
17333;DHT22;8784;50.94667800;7.08448400;2024-03-17T00:36:25;8.00;99.90
17333;DHT22;8784;50.94667800;7.08448400;2024-03-17T00:38:52;7.90;99.90
17333;DHT22;8784;50.94667800;7.08448400;2024-03-17T00:41:19;7.90;99.90
17333;DHT22;8784;50.94667800;7.08448400;2024-03-17T00:43:47;7.80;99.90
17333;DHT22;8784;50.94667800;7.08448400;2024-03-17T00:46:14;7.70;99.90
17333;DHT22;8784;50.94667800;7.08448400;2024-03-17T00:48:39;7.70;99.90
17333;DHT22;8784;50.94667800;7.08448400;2024-03-17T00:51:06;7.70;99.90
17333;DHT22;8784;50.94667800;7.08448400;2024-03-17T00:53:32;7.60;99.90
17333;DHT22;8784;50.94667800;7.08448400;2024-03-17T00:56:01;7.50;99.90
17333;DHT22;8784;50.94667800;7.08448400;2024-03-17T00:58:27;7.50;99.90
17333;DHT22;8784;50.94667800;7.08448400;2024-03-17T01:00:54;7.40;99.90
17333;DHT22;8784;50.94667800;7.08448400;2024-03-17T01:03:20;7.40;99.90
17333;DHT22;8784;50.94667800;7.08448400;2024-03-17T01:05:47;7.40;99.90
17333;DHT22;8784;50.94667800;7.08448400;2024-03-17T01:08:16;7.30;99.90
17333;DHT22;8784;50.94667800;7.08448400;2024-03-17T01:10:44;7.40;99.90
17333;DHT22;8784;50.94667800;7.08448400;2024-03-17T01:13:12;7.30;99.90
17333;DHT22;8784;50.94667800;7.08448400;2024-03-17T01:15:39;7.30;99.90
17333;DHT22;8784;50.94667800;7.08448400;2024-03-17T01:18:06;7.20;99.90
17333;DHT22;8784;50.94667800;7.08448400;2024-03-17T01:20:35;7.20;99.90
17333;DHT22;8784;50.94667800;7.08448400;2024-03-17T01:23:01;7.20;99.90
17333;DHT22;8784;50.94667800;7.08448400;2024-03-17T01:25:28;7.10;99.90
17333;DHT22;8784;50.94667800;7.08448400;2024-03-17T01:27:55;7.20;99.90
17333;DHT22;8784;50.94667800;7.08448400;2024-03-17T01:30:23;7.10;99.90
17333;DHT22;8784;50.94667800;7.08448400;2024-03-17T01:32:51;7.10;99.90
17333;DHT22;8784;50.94667800;7.08448400;2024-03-17T01:35:18;7.00;99.90
17333;DHT22;8784;50.94667800;7.08448400;2024-03-17T01:37:44;7.10;99.90
17333;DHT22;8784;50.94667800;7.08448400;2024-03-17T01:40:11;7.00;99.90
17333;DHT22;8784;50.94667800;7.08448400;2024-03-17T01:42:38;7.00;99.90
17333;DHT22;8784;50.94667800;7.08448400;2024-03-17T01:45:23;7.00;99.90
17333;DHT22;8784;50.94667800;7.08448400;2024-03-17T01:47:51;7.00;99.90
17333;DHT22;8784;50.94667800;7.08448400;2024-03-17T01:50:18;6.90;99.90
17333;DHT22;8784;50.94667800;7.08448400;2024-03-17T01:52:47;6.90;99.90
17333;DHT22;8784;50.94667800;7.08448400;2024-03-17T01:55:14;6.90;99.90
17333;DHT22;8784;50.94667800;7.08448400;2024-03-17T01:57:40;6.90;99.90
17333;DHT22;8784;50.94667800;7.08448400;2024-03-17T02:00:08;6.80;99.90
17333;DHT22;8784;50.94667800;7.08448400;2024-03-17T02:02:35;6.80;99.90
17333;DHT22;8784;50.94667800;7.08448400;2024-03-17T02:05:04;6.80;99.90
17333;DHT22;8784;50.94667800;7.08448400;2024-03-17T02:07:30;6.80;99.90
17333;DHT22;8784;50.94667800;7.08448400;2024-03-17T02:09:57;6.70;99.90
17333;DHT22;8784;50.94667800;7.08448400;2024-03-17T02:12:23;6.70;99.90
17333;DHT22;8784;50.94667800;7.08448400;2024-03-17T02:14:50;6.70;99.90
17333;DHT22;8784;50.94667800;7.08448400;2024-03-17T02:17:16;6.70;99.90
17333;DHT22;8784;50.94667800;7.08448400;2024-03-17T02:19:43;6.70;99.90
17333;DHT22;8784;50.94667800;7.08448400;2024-03-17T02:22:14;6.70;99.90
17333;DHT22;8784;50.94667800;7.08448400;2024-03-17T02:24:42;6.70;99.90
17333;DHT22;8784;50.94667800;7.08448400;2024-03-17T02:27:08;6.70;99.90
17333;DHT22;8784;50.94667800;7.08448400;2024-03-17T02:29:35;6.60;99.90
17333;DHT22;8784;50.94667800;7.08448400;2024-03-17T02:32:02;6.60;99.90
17333;DHT22;8784;50.94667800;7.08448400;2024-03-17T02:34:32;6.50;99.90
17333;DHT22;8784;50.94667800;7.08448400;2024-03-17T02:36:59;6.50;99.90
17333;DHT22;8784;50.94667800;7.08448400;2024-03-17T02:39:27;6.50;99.90
17333;DHT22;8784;50.94667800;7.08448400;2024-03-17T02:42:11;6.50;99.90
17333;DHT22;8784;50.94667800;7.08448400;2024-03-17T02:44:39;6.40;99.90
17333;DHT22;8784;50.94667800;7.08448400;2024-03-17T02:47:06;6.40;99.90
17333;DHT22;8784;50.94667800;7.08448400;2024-03-17T02:49:36;6.40;99.90
17333;DHT22;8784;50.94667800;7.08448400;2024-03-17T02:52:06;6.30;99.90
17333;DHT22;8784;50.94667800;7.08448400;2024-03-17T02:54:34;6.30;99.90
17333;DHT22;8784;50.94667800;7.08448400;2024-03-17T02:57:02;6.30;99.90
17333;DHT22;8784;50.94667800;7.08448400;2024-03-17T02:59:29;6.30;99.90
17333;DHT22;8784;50.94667800;7.08448400;2024-03-17T03:01:57;6.20;99.90
17333;DHT22;8784;50.94667800;7.08448400;2024-03-17T03:04:24;6.10;99.90
17333;DHT22;8784;50.94667800;7.08448400;2024-03-17T03:06:51;6.10;99.90
17333;DHT22;8784;50.94667800;7.08448400;2024-03-17T03:09:18;6.10;99.90
17333;DHT22;8784;50.94667800;7.08448400;2024-03-17T03:11:52;6.10;99.90
17333;DHT22;8784;50.94667800;7.08448400;2024-03-17T03:14:19;6.00;99.90
17333;DHT22;8784;50.94667800;7.08448400;2024-03-17T03:16:47;6.00;99.90
17333;DHT22;8784;50.94667800;7.08448400;2024-03-17T03:19:15;5.90;99.90
17333;DHT22;8784;50.94667800;7.08448400;2024-03-17T03:21:42;5.80;99.90
17333;DHT22;8784;50.94667800;7.08448400;2024-03-17T03:24:09;5.80;99.90
17333;DHT22;8784;50.94667800;7.08448400;2024-03-17T03:26:35;5.90;99.90
17333;DHT22;8784;50.94667800;7.08448400;2024-03-17T03:29:05;5.80;99.90
17333;DHT22;8784;50.94667800;7.08448400;2024-03-17T03:31:32;5.80;99.90
17333;DHT22;8784;50.94667800;7.08448400;2024-03-17T03:33:59;5.90;99.90
17333;DHT22;8784;50.94667800;7.08448400;2024-03-17T03:36:27;5.80;99.90
17333;DHT22;8784;50.94667800;7.08448400;2024-03-17T03:38:54;5.80;99.90
17333;DHT22;8784;50.94667800;7.08448400;2024-03-17T03:41:23;5.70;99.90
17333;DHT22;8784;50.94667800;7.08448400;2024-03-17T03:43:50;5.70;99.90
17333;DHT22;8784;50.94667800;7.08448400;2024-03-17T03:46:19;5.70;99.90
17333;DHT22;8784;50.94667800;7.08448400;2024-03-17T03:48:46;5.70;99.90
17333;DHT22;8784;50.94667800;7.08448400;2024-03-17T03:51:13;5.70;99.90
17333;DHT22;8784;50.94667800;7.08448400;2024-03-17T03:53:40;5.60;99.90
17333;DHT22;8784;50.94667800;7.08448400;2024-03-17T03:56:08;5.70;99.90
17333;DHT22;8784;50.94667800;7.08448400;2024-03-17T03:58:36;5.70;99.90
17333;DHT22;8784;50.94667800;7.08448400;2024-03-17T04:01:04;5.70;99.90
17333;DHT22;8784;50.94667800;7.08448400;2024-03-17T04:03:33;5.70;99.90
17333;DHT22;8784;50.94667800;7.08448400;2024-03-17T04:06:03;5.70;99.90
17333;DHT22;8784;50.94667800;7.08448400;2024-03-17T04:08:31;5.60;99.90
17333;DHT22;8784;50.94667800;7.08448400;2024-03-17T04:10:58;5.60;99.90
17333;DHT22;8784;50.94667800;7.08448400;2024-03-17T04:13:26;5.60;99.90
17333;DHT22;8784;50.94667800;7.08448400;2024-03-17T04:15:55;5.60;99.90
17333;DHT22;8784;50.94667800;7.08448400;2024-03-17T04:18:23;5.50;99.90
17333;DHT22;8784;50.94667800;7.08448400;2024-03-17T04:20:51;5.50;99.90
17333;DHT22;8784;50.94667800;7.08448400;2024-03-17T04:23:19;5.50;99.90
17333;DHT22;8784;50.94667800;7.08448400;2024-03-17T04:25:47;5.60;99.90
17333;DHT22;8784;50.94667800;7.08448400;2024-03-17T04:28:14;5.50;99.90
17333;DHT22;8784;50.94667800;7.08448400;2024-03-17T04:30:41;5.50;99.90
17333;DHT22;8784;50.94667800;7.08448400;2024-03-17T04:33:08;5.50;99.90
17333;DHT22;8784;50.94667800;7.08448400;2024-03-17T04:35:36;5.40;99.90
17333;DHT22;8784;50.94667800;7.08448400;2024-03-17T04:38:04;5.40;99.90
17333;DHT22;8784;50.94667800;7.08448400;2024-03-17T04:40:32;5.30;99.90
17333;DHT22;8784;50.94667800;7.08448400;2024-03-17T04:42:59;5.30;99.90
17333;DHT22;8784;50.94667800;7.08448400;2024-03-17T04:45:26;5.30;99.90
17333;DHT22;8784;50.94667800;7.08448400;2024-03-17T04:47:53;5.30;99.90
17333;DHT22;8784;50.94667800;7.08448400;2024-03-17T04:50:20;5.40;99.90
17333;DHT22;8784;50.94667800;7.08448400;2024-03-17T04:52:47;5.40;99.90
17333;DHT22;8784;50.94667800;7.08448400;2024-03-17T04:55:16;5.40;99.90
17333;DHT22;8784;50.94667800;7.08448400;2024-03-17T04:57:44;5.30;99.90
17333;DHT22;8784;50.94667800;7.08448400;2024-03-17T05:00:12;5.40;99.90
17333;DHT22;8784;50.94667800;7.08448400;2024-03-17T05:02:39;5.40;99.90
17333;DHT22;8784;50.94667800;7.08448400;2024-03-17T05:05:07;5.50;99.90
17333;DHT22;8784;50.94667800;7.08448400;2024-03-17T05:07:36;5.50;99.90
17333;DHT22;8784;50.94667800;7.08448400;2024-03-17T05:10:03;5.50;99.90
17333;DHT22;8784;50.94667800;7.08448400;2024-03-17T05:12:32;5.60;99.90
17333;DHT22;8784;50.94667800;7.08448400;2024-03-17T05:14:59;5.60;99.90
17333;DHT22;8784;50.94667800;7.08448400;2024-03-17T05:17:26;5.60;99.90
17333;DHT22;8784;50.94667800;7.08448400;2024-03-17T05:19:53;5.60;99.90
17333;DHT22;8784;50.94667800;7.08448400;2024-03-17T05:22:20;5.60;99.90
17333;DHT22;8784;50.94667800;7.08448400;2024-03-17T05:24:47;5.60;99.90
17333;DHT22;8784;50.94667800;7.08448400;2024-03-17T05:27:14;5.60;99.90
17333;DHT22;8784;50.94667800;7.08448400;2024-03-17T05:29:42;5.60;99.90
17333;DHT22;8784;50.94667800;7.08448400;2024-03-17T05:32:09;5.60;99.90
17333;DHT22;8784;50.94667800;7.08448400;2024-03-17T05:34:38;5.60;99.90
17333;DHT22;8784;50.94667800;7.08448400;2024-03-17T05:37:05;5.60;99.90
17333;DHT22;8784;50.94667800;7.08448400;2024-03-17T05:39:31;5.70;99.90
17333;DHT22;8784;50.94667800;7.08448400;2024-03-17T05:41:59;5.80;99.90
17333;DHT22;8784;50.94667800;7.08448400;2024-03-17T05:44:29;5.80;99.90
17333;DHT22;8784;50.94667800;7.08448400;2024-03-17T05:47:07;5.90;99.90
17333;DHT22;8784;50.94667800;7.08448400;2024-03-17T05:49:35;5.90;99.90
17333;DHT22;8784;50.94667800;7.08448400;2024-03-17T05:52:02;5.90;99.90
17333;DHT22;8784;50.94667800;7.08448400;2024-03-17T05:54:29;5.90;99.90
17333;DHT22;8784;50.94667800;7.08448400;2024-03-17T05:56:56;5.90;99.90
17333;DHT22;8784;50.94667800;7.08448400;2024-03-17T05:59:23;5.90;99.90
17333;DHT22;8784;50.94667800;7.08448400;2024-03-17T06:01:50;5.90;99.90
17333;DHT22;8784;50.94667800;7.08448400;2024-03-17T06:04:18;6.00;99.90
17333;DHT22;8784;50.94667800;7.08448400;2024-03-17T06:06:45;6.00;99.90
17333;DHT22;8784;50.94667800;7.08448400;2024-03-17T06:09:14;6.00;99.90
17333;DHT22;8784;50.94667800;7.08448400;2024-03-17T06:11:45;6.10;99.90
17333;DHT22;8784;50.94667800;7.08448400;2024-03-17T06:14:12;6.20;99.90
17333;DHT22;8784;50.94667800;7.08448400;2024-03-17T06:16:39;6.30;99.90
17333;DHT22;8784;50.94667800;7.08448400;2024-03-17T06:19:06;6.50;99.90
17333;DHT22;8784;50.94667800;7.08448400;2024-03-17T06:21:35;6.60;99.90
17333;DHT22;8784;50.94667800;7.08448400;2024-03-17T06:24:02;6.60;99.90
17333;DHT22;8784;50.94667800;7.08448400;2024-03-17T06:26:29;6.70;99.90
17333;DHT22;8784;50.94667800;7.08448400;2024-03-17T06:28:57;6.70;99.90
17333;DHT22;8784;50.94667800;7.08448400;2024-03-17T06:31:25;6.70;99.90
17333;DHT22;8784;50.94667800;7.08448400;2024-03-17T06:33:52;6.70;99.90
17333;DHT22;8784;50.94667800;7.08448400;2024-03-17T06:36:19;6.80;99.90
17333;DHT22;8784;50.94667800;7.08448400;2024-03-17T06:38:47;6.90;99.90
17333;DHT22;8784;50.94667800;7.08448400;2024-03-17T06:41:14;7.00;99.90
17333;DHT22;8784;50.94667800;7.08448400;2024-03-17T06:43:43;7.10;99.90
17333;DHT22;8784;50.94667800;7.08448400;2024-03-17T06:46:10;7.20;99.90
17333;DHT22;8784;50.94667800;7.08448400;2024-03-17T06:48:37;7.40;99.90
17333;DHT22;8784;50.94667800;7.08448400;2024-03-17T06:51:04;7.60;99.90
17333;DHT22;8784;50.94667800;7.08448400;2024-03-17T06:53:32;7.90;99.90
17333;DHT22;8784;50.94667800;7.08448400;2024-03-17T06:56:01;8.10;99.90
17333;DHT22;8784;50.94667800;7.08448400;2024-03-17T06:58:28;8.40;99.90
17333;DHT22;8784;50.94667800;7.08448400;2024-03-17T07:00:57;8.60;99.90
17333;DHT22;8784;50.94667800;7.08448400;2024-03-17T07:03:25;8.80;99.90
17333;DHT22;8784;50.94667800;7.08448400;2024-03-17T07:05:54;8.90;99.90
17333;DHT22;8784;50.94667800;7.08448400;2024-03-17T07:08:22;9.00;99.90
17333;DHT22;8784;50.94667800;7.08448400;2024-03-17T07:10:56;9.00;99.90
17333;DHT22;8784;50.94667800;7.08448400;2024-03-17T07:13:25;9.10;99.90
17333;DHT22;8784;50.94667800;7.08448400;2024-03-17T07:15:53;9.10;99.90
17333;DHT22;8784;50.94667800;7.08448400;2024-03-17T07:18:20;9.10;99.90
17333;DHT22;8784;50.94667800;7.08448400;2024-03-17T07:20:47;9.30;99.90
17333;DHT22;8784;50.94667800;7.08448400;2024-03-17T07:23:14;9.40;99.90
17333;DHT22;8784;50.94667800;7.08448400;2024-03-17T07:25:42;9.40;99.90
17333;DHT22;8784;50.94667800;7.08448400;2024-03-17T07:28:18;9.40;99.90
17333;DHT22;8784;50.94667800;7.08448400;2024-03-17T07:30:48;9.60;99.90
17333;DHT22;8784;50.94667800;7.08448400;2024-03-17T07:33:17;9.90;99.90
17333;DHT22;8784;50.94667800;7.08448400;2024-03-17T07:35:50;10.10;99.90
17333;DHT22;8784;50.94667800;7.08448400;2024-03-17T07:38:18;10.40;99.90
17333;DHT22;8784;50.94667800;7.08448400;2024-03-17T07:40:54;10.60;99.90
17333;DHT22;8784;50.94667800;7.08448400;2024-03-17T07:43:23;10.70;99.90
17333;DHT22;8784;50.94667800;7.08448400;2024-03-17T07:45:59;10.80;99.90
17333;DHT22;8784;50.94667800;7.08448400;2024-03-17T07:48:26;10.90;99.90
17333;DHT22;8784;50.94667800;7.08448400;2024-03-17T07:50:55;11.00;99.90
17333;DHT22;8784;50.94667800;7.08448400;2024-03-17T07:53:22;11.00;99.90
17333;DHT22;8784;50.94667800;7.08448400;2024-03-17T07:55:57;11.00;99.90
17333;DHT22;8784;50.94667800;7.08448400;2024-03-17T07:58:26;11.00;99.90
17333;DHT22;8784;50.94667800;7.08448400;2024-03-17T08:00:58;11.10;99.90
17333;DHT22;8784;50.94667800;7.08448400;2024-03-17T08:03:30;11.10;99.90
17333;DHT22;8784;50.94667800;7.08448400;2024-03-17T08:06:05;11.20;99.90
17333;DHT22;8784;50.94667800;7.08448400;2024-03-17T08:08:33;11.30;99.90
17333;DHT22;8784;50.94667800;7.08448400;2024-03-17T08:11:00;11.50;99.90
17333;DHT22;8784;50.94667800;7.08448400;2024-03-17T08:13:29;11.60;99.90
17333;DHT22;8784;50.94667800;7.08448400;2024-03-17T08:16:02;11.80;99.90
17333;DHT22;8784;50.94667800;7.08448400;2024-03-17T08:18:31;12.00;99.90
17333;DHT22;8784;50.94667800;7.08448400;2024-03-17T08:21:01;12.20;99.90
17333;DHT22;8784;50.94667800;7.08448400;2024-03-17T08:23:32;12.20;99.90
17333;DHT22;8784;50.94667800;7.08448400;2024-03-17T08:26:02;12.40;99.90
17333;DHT22;8784;50.94667800;7.08448400;2024-03-17T08:28:31;12.70;99.90
17333;DHT22;8784;50.94667800;7.08448400;2024-03-17T08:31:01;12.90;99.90
17333;DHT22;8784;50.94667800;7.08448400;2024-03-17T08:33:32;13.20;99.90
17333;DHT22;8784;50.94667800;7.08448400;2024-03-17T08:36:02;13.30;99.90
17333;DHT22;8784;50.94667800;7.08448400;2024-03-17T08:38:31;13.30;99.90
17333;DHT22;8784;50.94667800;7.08448400;2024-03-17T08:41:02;13.20;99.90
17333;DHT22;8784;50.94667800;7.08448400;2024-03-17T08:43:30;13.20;99.90
17333;DHT22;8784;50.94667800;7.08448400;2024-03-17T08:45:59;13.10;99.90
17333;DHT22;8784;50.94667800;7.08448400;2024-03-17T08:48:29;13.20;99.90
17333;DHT22;8784;50.94667800;7.08448400;2024-03-17T08:50:56;13.40;99.90
17333;DHT22;8784;50.94667800;7.08448400;2024-03-17T08:53:24;13.70;99.90
17333;DHT22;8784;50.94667800;7.08448400;2024-03-17T08:55:52;13.80;99.90
17333;DHT22;8784;50.94667800;7.08448400;2024-03-17T08:58:20;13.90;99.90
17333;DHT22;8784;50.94667800;7.08448400;2024-03-17T09:00:48;13.90;99.90
17333;DHT22;8784;50.94667800;7.08448400;2024-03-17T09:03:16;13.90;99.90
17333;DHT22;8784;50.94667800;7.08448400;2024-03-17T09:05:45;13.80;99.90
17333;DHT22;8784;50.94667800;7.08448400;2024-03-17T09:08:16;13.70;99.90
17333;DHT22;8784;50.94667800;7.08448400;2024-03-17T09:10:46;13.80;99.90
17333;DHT22;8784;50.94667800;7.08448400;2024-03-17T09:13:15;13.70;99.90
17333;DHT22;8784;50.94667800;7.08448400;2024-03-17T09:15:50;13.80;99.90
17333;DHT22;8784;50.94667800;7.08448400;2024-03-17T09:18:19;14.10;99.90
17333;DHT22;8784;50.94667800;7.08448400;2024-03-17T09:20:46;14.50;99.90
17333;DHT22;8784;50.94667800;7.08448400;2024-03-17T09:23:22;14.80;99.90
17333;DHT22;8784;50.94667800;7.08448400;2024-03-17T09:25:56;15.10;99.90
17333;DHT22;8784;50.94667800;7.08448400;2024-03-17T09:28:24;15.40;99.90
17333;DHT22;8784;50.94667800;7.08448400;2024-03-17T09:30:51;15.50;98.30
17333;DHT22;8784;50.94667800;7.08448400;2024-03-17T09:33:29;15.50;98.20
17333;DHT22;8784;50.94667800;7.08448400;2024-03-17T09:35:58;15.30;97.30
17333;DHT22;8784;50.94667800;7.08448400;2024-03-17T09:38:26;15.10;97.50
17333;DHT22;8784;50.94667800;7.08448400;2024-03-17T09:40:54;14.90;97.90
17333;DHT22;8784;50.94667800;7.08448400;2024-03-17T09:43:24;14.70;97.30
17333;DHT22;8784;50.94667800;7.08448400;2024-03-17T09:45:51;14.60;97.30
17333;DHT22;8784;50.94667800;7.08448400;2024-03-17T09:48:23;14.60;97.50
17333;DHT22;8784;50.94667800;7.08448400;2024-03-17T09:50:52;14.90;97.80
17333;DHT22;8784;50.94667800;7.08448400;2024-03-17T09:53:23;15.40;97.60
17333;DHT22;8784;50.94667800;7.08448400;2024-03-17T09:55:51;16.00;97.10
17333;DHT22;8784;50.94667800;7.08448400;2024-03-17T09:58:19;16.50;95.90
17333;DHT22;8784;50.94667800;7.08448400;2024-03-17T10:00:46;17.10;95.40
17333;DHT22;8784;50.94667800;7.08448400;2024-03-17T10:03:12;17.60;94.30
17333;DHT22;8784;50.94667800;7.08448400;2024-03-17T10:05:41;18.00;93.70
17333;DHT22;8784;50.94667800;7.08448400;2024-03-17T10:08:21;18.40;92.10
17333;DHT22;8784;50.94667800;7.08448400;2024-03-17T10:10:52;18.30;90.10
17333;DHT22;8784;50.94667800;7.08448400;2024-03-17T10:13:20;18.50;90.30
17333;DHT22;8784;50.94667800;7.08448400;2024-03-17T10:15:50;18.60;90.70
17333;DHT22;8784;50.94667800;7.08448400;2024-03-17T10:18:21;18.70;90.60
17333;DHT22;8784;50.94667800;7.08448400;2024-03-17T10:20:51;18.80;90.20
17333;DHT22;8784;50.94667800;7.08448400;2024-03-17T10:23:22;18.80;89.50
17333;DHT22;8784;50.94667800;7.08448400;2024-03-17T10:25:49;18.20;87.40
17333;DHT22;8784;50.94667800;7.08448400;2024-03-17T10:28:17;17.60;88.50
17333;DHT22;8784;50.94667800;7.08448400;2024-03-17T10:30:57;17.10;89.70
17333;DHT22;8784;50.94667800;7.08448400;2024-03-17T10:33:25;16.80;90.20
17333;DHT22;8784;50.94667800;7.08448400;2024-03-17T10:36:02;16.70;90.60
17333;DHT22;8784;50.94667800;7.08448400;2024-03-17T10:38:31;16.50;90.60
17333;DHT22;8784;50.94667800;7.08448400;2024-03-17T10:41:01;16.30;91.30
17333;DHT22;8784;50.94667800;7.08448400;2024-03-17T10:43:28;16.40;91.10
17333;DHT22;8784;50.94667800;7.08448400;2024-03-17T10:45:58;16.80;91.20
17333;DHT22;8784;50.94667800;7.08448400;2024-03-17T10:48:30;17.10;90.00
17333;DHT22;8784;50.94667800;7.08448400;2024-03-17T10:51:01;17.50;90.00
17333;DHT22;8784;50.94667800;7.08448400;2024-03-17T10:53:30;17.60;88.20
17333;DHT22;8784;50.94667800;7.08448400;2024-03-17T10:56:04;17.50;88.50
17333;DHT22;8784;50.94667800;7.08448400;2024-03-17T10:58:35;17.20;88.80
17333;DHT22;8784;50.94667800;7.08448400;2024-03-17T11:01:03;17.10;88.90
17333;DHT22;8784;50.94667800;7.08448400;2024-03-17T11:03:34;17.10;89.10
17333;DHT22;8784;50.94667800;7.08448400;2024-03-17T11:06:04;17.20;89.50
17333;DHT22;8784;50.94667800;7.08448400;2024-03-17T11:08:32;17.20;89.40
17333;DHT22;8784;50.94667800;7.08448400;2024-03-17T11:11:01;17.30;88.90
17333;DHT22;8784;50.94667800;7.08448400;2024-03-17T11:13:30;17.30;89.20
17333;DHT22;8784;50.94667800;7.08448400;2024-03-17T11:15:58;17.30;89.10
17333;DHT22;8784;50.94667800;7.08448400;2024-03-17T11:18:39;17.20;88.40
17333;DHT22;8784;50.94667800;7.08448400;2024-03-17T11:21:19;17.00;89.00
17333;DHT22;8784;50.94667800;7.08448400;2024-03-17T11:24:01;17.00;89.60
17333;DHT22;8784;50.94667800;7.08448400;2024-03-17T11:26:30;17.00;89.10
17333;DHT22;8784;50.94667800;7.08448400;2024-03-17T11:28:58;16.90;88.80
17333;DHT22;8784;50.94667800;7.08448400;2024-03-17T11:31:47;17.00;89.00
17333;DHT22;8784;50.94667800;7.08448400;2024-03-17T11:34:35;17.00;89.20
17333;DHT22;8784;50.94667800;7.08448400;2024-03-17T11:37:06;17.10;89.20
17333;DHT22;8784;50.94667800;7.08448400;2024-03-17T11:39:53;17.30;89.70
17333;DHT22;8784;50.94667800;7.08448400;2024-03-17T11:42:23;17.40;90.10
17333;DHT22;8784;50.94667800;7.08448400;2024-03-17T11:45:05;17.60;89.20
17333;DHT22;8784;50.94667800;7.08448400;2024-03-17T11:47:37;17.60;88.10
17333;DHT22;8784;50.94667800;7.08448400;2024-03-17T11:50:07;17.50;88.00
17333;DHT22;8784;50.94667800;7.08448400;2024-03-17T11:52:37;17.40;87.20
17333;DHT22;8784;50.94667800;7.08448400;2024-03-17T11:55:15;17.20;87.30
17333;DHT22;8784;50.94667800;7.08448400;2024-03-17T11:57:41;17.00;86.80
17333;DHT22;8784;50.94667800;7.08448400;2024-03-17T12:00:19;16.70;86.30
17333;DHT22;8784;50.94667800;7.08448400;2024-03-17T12:02:48;16.50;87.30
17333;DHT22;8784;50.94667800;7.08448400;2024-03-17T12:05:16;16.50;88.90
17333;DHT22;8784;50.94667800;7.08448400;2024-03-17T12:07:44;16.70;89.20
17333;DHT22;8784;50.94667800;7.08448400;2024-03-17T12:10:11;16.70;88.50
17333;DHT22;8784;50.94667800;7.08448400;2024-03-17T12:12:40;16.80;88.60
17333;DHT22;8784;50.94667800;7.08448400;2024-03-17T12:15:18;16.80;88.10
17333;DHT22;8784;50.94667800;7.08448400;2024-03-17T12:17:45;16.90;87.70
17333;DHT22;8784;50.94667800;7.08448400;2024-03-17T12:20:19;16.80;88.40
17333;DHT22;8784;50.94667800;7.08448400;2024-03-17T12:22:47;16.80;89.90
17333;DHT22;8784;50.94667800;7.08448400;2024-03-17T12:25:18;16.90;89.20
17333;DHT22;8784;50.94667800;7.08448400;2024-03-17T12:27:46;16.80;87.60
17333;DHT22;8784;50.94667800;7.08448400;2024-03-17T12:30:14;16.60;87.30
17333;DHT22;8784;50.94667800;7.08448400;2024-03-17T12:32:41;16.50;87.00
17333;DHT22;8784;50.94667800;7.08448400;2024-03-17T12:35:13;16.40;87.60
17333;DHT22;8784;50.94667800;7.08448400;2024-03-17T12:37:44;16.30;87.60
17333;DHT22;8784;50.94667800;7.08448400;2024-03-17T12:40:20;16.30;88.40
17333;DHT22;8784;50.94667800;7.08448400;2024-03-17T12:42:48;16.30;89.00
17333;DHT22;8784;50.94667800;7.08448400;2024-03-17T12:45:20;16.50;89.00
17333;DHT22;8784;50.94667800;7.08448400;2024-03-17T12:47:48;16.50;89.30
17333;DHT22;8784;50.94667800;7.08448400;2024-03-17T12:50:16;16.60;89.40
17333;DHT22;8784;50.94667800;7.08448400;2024-03-17T12:52:52;16.70;89.90
17333;DHT22;8784;50.94667800;7.08448400;2024-03-17T12:55:23;16.70;88.90
17333;DHT22;8784;50.94667800;7.08448400;2024-03-17T12:58:09;16.60;88.50
17333;DHT22;8784;50.94667800;7.08448400;2024-03-17T13:00:59;16.60;88.90
17333;DHT22;8784;50.94667800;7.08448400;2024-03-17T13:03:27;16.70;89.10
17333;DHT22;8784;50.94667800;7.08448400;2024-03-17T13:05:57;16.60;88.70
17333;DHT22;8784;50.94667800;7.08448400;2024-03-17T13:08:24;16.60;88.10
17333;DHT22;8784;50.94667800;7.08448400;2024-03-17T13:10:53;16.50;87.40
17333;DHT22;8784;50.94667800;7.08448400;2024-03-17T13:13:21;16.30;88.50
17333;DHT22;8784;50.94667800;7.08448400;2024-03-17T13:15:48;16.30;87.80
17333;DHT22;8784;50.94667800;7.08448400;2024-03-17T13:18:17;16.30;88.10
17333;DHT22;8784;50.94667800;7.08448400;2024-03-17T13:20:46;16.20;87.90
17333;DHT22;8784;50.94667800;7.08448400;2024-03-17T13:23:15;16.20;87.70
17333;DHT22;8784;50.94667800;7.08448400;2024-03-17T13:25:41;16.00;87.80
17333;DHT22;8784;50.94667800;7.08448400;2024-03-17T13:28:10;16.00;88.90
17333;DHT22;8784;50.94667800;7.08448400;2024-03-17T13:30:38;16.10;90.00
17333;DHT22;8784;50.94667800;7.08448400;2024-03-17T13:33:06;16.20;89.10
17333;DHT22;8784;50.94667800;7.08448400;2024-03-17T13:35:36;16.20;88.70
17333;DHT22;8784;50.94667800;7.08448400;2024-03-17T13:38:05;16.10;88.20
17333;DHT22;8784;50.94667800;7.08448400;2024-03-17T13:40:33;15.90;89.60
17333;DHT22;8784;50.94667800;7.08448400;2024-03-17T13:43:00;15.90;88.80
17333;DHT22;8784;50.94667800;7.08448400;2024-03-17T13:45:29;15.80;89.00
17333;DHT22;8784;50.94667800;7.08448400;2024-03-17T13:47:58;15.70;89.20
17333;DHT22;8784;50.94667800;7.08448400;2024-03-17T13:50:25;15.70;90.20
17333;DHT22;8784;50.94667800;7.08448400;2024-03-17T13:52:53;15.80;90.30